SHT3B EGCC-EGLL
Flight info
| Callsign | SHT3B |
|---|---|
| Flight time | 0h 45m |
| Altitude | 17000 |
| Route | SANBA N859 HON |
| Aircraft | A319/M-SDE3FGHIRWY/LB1 |
Departure
| Time | 2026-05-05 08:03 |
|---|---|
| Airport | Manchester Airport (EGCC) |
Arrival
| Time | 2026-05-05 08:48 |
|---|---|
| Airport | London Heathrow Airport (EGLL) |
| Time | Latitude | Longitude | Altitude | Speed | Heading |
|---|---|---|---|---|---|
| 2026-05-05 07:35 | 53.36862 | -2.28831 | 255 ft | 0 kts | 133° |
| 2026-05-05 07:53 | 53.36868 | -2.28842 | 255 ft | 4 kts | 134° |
| 2026-05-05 07:53 | 53.36888 | -2.28874 | 255 ft | 4 kts | 141° |
| 2026-05-05 07:53 | 53.36909 | -2.28895 | 255 ft | 4 kts | 175° |
| 2026-05-05 07:53 | 53.36924 | -2.28891 | 255 ft | 0 kts | 224° |
| 2026-05-05 07:57 | 53.36923 | -2.28892 | 255 ft | 0 kts | 224° |
| 2026-05-05 07:57 | 53.36922 | -2.28894 | 255 ft | 2 kts | 224° |
| 2026-05-05 07:57 | 53.36883 | -2.28958 | 255 ft | 12 kts | 224° |
| 2026-05-05 07:58 | 53.36807 | -2.29051 | 255 ft | 16 kts | 199° |
| 2026-05-05 07:58 | 53.36703 | -2.29012 | 255 ft | 19 kts | 133° |
| 2026-05-05 07:58 | 53.36600 | -2.28838 | 255 ft | 24 kts | 127° |
| 2026-05-05 07:58 | 53.36488 | -2.28602 | 255 ft | 29 kts | 135° |
| 2026-05-05 07:59 | 53.36382 | -2.28355 | 255 ft | 23 kts | 135° |
| 2026-05-05 07:59 | 53.36300 | -2.28210 | 255 ft | 15 kts | 134° |
| 2026-05-05 07:59 | 53.36203 | -2.28041 | 255 ft | 24 kts | 134° |
| 2026-05-05 07:59 | 53.36071 | -2.27861 | 255 ft | 23 kts | 142° |
| 2026-05-05 08:00 | 53.35923 | -2.27726 | 255 ft | 26 kts | 177° |
| 2026-05-05 08:00 | 53.35817 | -2.27730 | 252 ft | 9 kts | 170° |
| 2026-05-05 08:00 | 53.35743 | -2.27647 | 249 ft | 19 kts | 155° |
| 2026-05-05 08:00 | 53.35614 | -2.27519 | 245 ft | 24 kts | 135° |
| 2026-05-05 08:01 | 53.35473 | -2.27324 | 248 ft | 28 kts | 143° |
| 2026-05-05 08:01 | 53.35333 | -2.27193 | 244 ft | 23 kts | 182° |
| 2026-05-05 08:01 | 53.35160 | -2.27246 | 231 ft | 16 kts | 192° |
| 2026-05-05 08:01 | 53.35133 | -2.27256 | 229 ft | 8 kts | 192° |
| 2026-05-05 08:02 | 53.35035 | -2.27292 | 226 ft | 19 kts | 200° |
| 2026-05-05 08:02 | 53.34917 | -2.27515 | 223 ft | 48 kts | 231° |
| 2026-05-05 08:02 | 53.34565 | -2.28250 | 229 ft | 113 kts | 231° |
| 2026-05-05 08:02 | 53.33961 | -2.29498 | 229 ft | 165 kts | 231° |
| 2026-05-05 08:03 | 53.33196 | -2.31067 | 747 ft | 169 kts | 232° |
| 2026-05-05 08:03 | 53.32473 | -2.32555 | 1597 ft | 164 kts | 234° |
| 2026-05-05 08:03 | 53.31875 | -2.34254 | 1975 ft | 180 kts | 260° |
| 2026-05-05 08:03 | 53.32032 | -2.36390 | 2278 ft | 198 kts | 295° |
| 2026-05-05 08:04 | 53.32659 | -2.38571 | 2651 ft | 221 kts | 292° |
| 2026-05-05 08:04 | 53.32981 | -2.41249 | 3111 ft | 251 kts | 270° |
| 2026-05-05 08:04 | 53.32414 | -2.44078 | 4001 ft | 266 kts | 235° |
| 2026-05-05 08:04 | 53.30937 | -2.45986 | 4780 ft | 277 kts | 200° |
| 2026-05-05 08:05 | 53.29038 | -2.46156 | 5785 ft | 278 kts | 168° |
| 2026-05-05 08:05 | 53.27168 | -2.45286 | 6831 ft | 280 kts | 157° |
| 2026-05-05 08:05 | 53.25452 | -2.43712 | 7732 ft | 284 kts | 149° |
| 2026-05-05 08:05 | 53.23724 | -2.42054 | 8667 ft | 287 kts | 151° |
| 2026-05-05 08:06 | 53.21959 | -2.40437 | 9562 ft | 292 kts | 153° |
| 2026-05-05 08:06 | 53.20147 | -2.38824 | 10294 ft | 302 kts | 154° |
| 2026-05-05 08:06 | 53.18213 | -2.37131 | 10579 ft | 325 kts | 154° |
| 2026-05-05 08:06 | 53.16149 | -2.35339 | 11017 ft | 340 kts | 154° |
| 2026-05-05 08:07 | 53.14036 | -2.33504 | 11713 ft | 346 kts | 154° |
| 2026-05-05 08:07 | 53.11880 | -2.31632 | 12442 ft | 350 kts | 154° |
| 2026-05-05 08:07 | 53.09718 | -2.29751 | 13162 ft | 354 kts | 154° |
| 2026-05-05 08:07 | 53.07510 | -2.27823 | 13880 ft | 358 kts | 154° |
| 2026-05-05 08:08 | 53.05290 | -2.25886 | 14514 ft | 362 kts | 154° |
| 2026-05-05 08:08 | 53.03044 | -2.23929 | 15170 ft | 365 kts | 155° |
| 2026-05-05 08:08 | 53.00786 | -2.21969 | 15832 ft | 368 kts | 155° |
| 2026-05-05 08:08 | 52.98543 | -2.20027 | 16479 ft | 370 kts | 155° |
| 2026-05-05 08:09 | 52.96267 | -2.18056 | 16923 ft | 371 kts | 155° |
| 2026-05-05 08:09 | 52.93983 | -2.16070 | 17034 ft | 374 kts | 155° |
| 2026-05-05 08:09 | 52.91656 | -2.14049 | 17050 ft | 379 kts | 155° |
| 2026-05-05 08:09 | 52.89311 | -2.12021 | 17050 ft | 380 kts | 155° |
| 2026-05-05 08:10 | 52.86963 | -2.09998 | 17047 ft | 380 kts | 155° |
| 2026-05-05 08:10 | 52.84630 | -2.08001 | 17048 ft | 379 kts | 155° |
| 2026-05-05 08:10 | 52.82286 | -2.05987 | 17048 ft | 380 kts | 155° |
| 2026-05-05 08:10 | 52.79935 | -2.03966 | 17048 ft | 380 kts | 155° |
| 2026-05-05 08:11 | 52.78382 | -2.02633 | 17049 ft | 380 kts | 155° |
| 2026-05-05 08:11 | 52.75241 | -1.99939 | 17043 ft | 380 kts | 155° |
| 2026-05-05 08:11 | 52.72902 | -1.97932 | 17048 ft | 379 kts | 154° |
| 2026-05-05 08:11 | 52.70562 | -1.95927 | 17051 ft | 378 kts | 154° |
| 2026-05-05 08:12 | 52.68227 | -1.93933 | 17049 ft | 378 kts | 155° |
| 2026-05-05 08:12 | 52.65894 | -1.91945 | 17049 ft | 378 kts | 154° |
| 2026-05-05 08:12 | 52.63565 | -1.89962 | 17045 ft | 378 kts | 155° |
| 2026-05-05 08:12 | 52.61230 | -1.87976 | 17045 ft | 378 kts | 154° |
| 2026-05-05 08:13 | 52.58890 | -1.85984 | 17030 ft | 377 kts | 154° |
| 2026-05-05 08:13 | 52.56558 | -1.84000 | 17029 ft | 377 kts | 154° |
| 2026-05-05 08:13 | 52.54224 | -1.82015 | 17028 ft | 377 kts | 154° |
| 2026-05-05 08:13 | 52.51893 | -1.80039 | 17027 ft | 377 kts | 155° |
| 2026-05-05 08:14 | 52.49559 | -1.78067 | 17022 ft | 377 kts | 155° |
| 2026-05-05 08:14 | 52.47226 | -1.76100 | 17029 ft | 377 kts | 155° |
| 2026-05-05 08:14 | 52.44892 | -1.74133 | 17035 ft | 377 kts | 155° |
| 2026-05-05 08:14 | 52.42563 | -1.72169 | 17039 ft | 377 kts | 155° |
| 2026-05-05 08:15 | 52.40232 | -1.70208 | 17028 ft | 377 kts | 154° |
| 2026-05-05 08:15 | 52.37901 | -1.68254 | 17027 ft | 377 kts | 154° |
| 2026-05-05 08:15 | 52.35623 | -1.66134 | 17026 ft | 378 kts | 147° |
| 2026-05-05 08:15 | 52.33576 | -1.63429 | 17028 ft | 380 kts | 141° |
| 2026-05-05 08:16 | 52.31577 | -1.60583 | 17031 ft | 380 kts | 141° |
| 2026-05-05 08:16 | 52.29584 | -1.57761 | 17009 ft | 380 kts | 141° |
| 2026-05-05 08:16 | 52.27581 | -1.54941 | 17006 ft | 380 kts | 141° |
| 2026-05-05 08:16 | 52.25580 | -1.52134 | 17007 ft | 379 kts | 140° |
| 2026-05-05 08:17 | 52.23576 | -1.49323 | 17015 ft | 379 kts | 140° |
| 2026-05-05 08:17 | 52.21609 | -1.46565 | 17018 ft | 379 kts | 140° |
| 2026-05-05 08:17 | 52.19607 | -1.43758 | 17016 ft | 378 kts | 140° |
| 2026-05-05 08:17 | 52.17612 | -1.40965 | 17018 ft | 378 kts | 140° |
| 2026-05-05 08:18 | 52.15615 | -1.38180 | 17015 ft | 377 kts | 140° |
| 2026-05-05 08:18 | 52.13622 | -1.35408 | 17018 ft | 377 kts | 140° |
| 2026-05-05 08:18 | 52.11626 | -1.32637 | 17014 ft | 377 kts | 140° |
| 2026-05-05 08:18 | 52.09632 | -1.29870 | 16937 ft | 374 kts | 140° |
| 2026-05-05 08:19 | 52.07672 | -1.27149 | 16635 ft | 367 kts | 140° |
| 2026-05-05 08:19 | 52.05745 | -1.24471 | 16317 ft | 362 kts | 140° |
| 2026-05-05 08:19 | 52.03843 | -1.21826 | 16010 ft | 357 kts | 140° |
| 2026-05-05 08:19 | 52.01966 | -1.19218 | 15706 ft | 353 kts | 140° |
| 2026-05-05 08:20 | 52.00099 | -1.16636 | 15402 ft | 351 kts | 140° |
| 2026-05-05 08:20 | 51.98240 | -1.14073 | 15107 ft | 350 kts | 140° |
| 2026-05-05 08:20 | 51.96388 | -1.11520 | 14985 ft | 350 kts | 140° |
| 2026-05-05 08:20 | 51.94528 | -1.08955 | 15002 ft | 351 kts | 140° |
| 2026-05-05 08:21 | 51.92691 | -1.06417 | 15004 ft | 341 kts | 140° |
| 2026-05-05 08:21 | 51.90922 | -1.03980 | 14974 ft | 329 kts | 140° |
| 2026-05-05 08:21 | 51.89201 | -1.01616 | 14540 ft | 326 kts | 140° |
| 2026-05-05 08:21 | 51.87485 | -0.99260 | 14092 ft | 321 kts | 139° |
| 2026-05-05 08:22 | 51.85827 | -0.96890 | 13651 ft | 316 kts | 132° |
| 2026-05-05 08:22 | 51.84589 | -0.93996 | 13181 ft | 316 kts | 116° |
| 2026-05-05 08:22 | 51.83611 | -0.90761 | 12703 ft | 319 kts | 115° |
| 2026-05-05 08:22 | 51.82655 | -0.87614 | 12518 ft | 305 kts | 115° |
| 2026-05-05 08:23 | 51.81737 | -0.84615 | 12398 ft | 291 kts | 116° |
| 2026-05-05 08:23 | 51.80860 | -0.81750 | 12256 ft | 278 kts | 116° |
| 2026-05-05 08:23 | 51.80020 | -0.79006 | 12129 ft | 269 kts | 116° |
| 2026-05-05 08:23 | 51.79193 | -0.76310 | 11997 ft | 266 kts | 116° |
| 2026-05-05 08:24 | 51.78375 | -0.73643 | 11871 ft | 266 kts | 116° |
| 2026-05-05 08:24 | 51.77554 | -0.70968 | 11745 ft | 266 kts | 115° |
| 2026-05-05 08:24 | 51.76732 | -0.68298 | 11619 ft | 265 kts | 116° |
| 2026-05-05 08:24 | 51.75911 | -0.65634 | 11493 ft | 266 kts | 116° |
| 2026-05-05 08:25 | 51.75079 | -0.62949 | 11371 ft | 267 kts | 116° |
| 2026-05-05 08:25 | 51.74251 | -0.60278 | 11248 ft | 267 kts | 116° |
| 2026-05-05 08:25 | 51.73416 | -0.57584 | 11121 ft | 267 kts | 116° |
| 2026-05-05 08:25 | 51.72588 | -0.54899 | 11001 ft | 267 kts | 114° |
| 2026-05-05 08:26 | 51.72177 | -0.52013 | 10819 ft | 265 kts | 87° |
| 2026-05-05 08:26 | 51.72589 | -0.49226 | 10653 ft | 262 kts | 61° |
| 2026-05-05 08:26 | 51.73710 | -0.46962 | 10481 ft | 259 kts | 37° |
| 2026-05-05 08:26 | 51.75303 | -0.45693 | 10314 ft | 256 kts | 11° |
| 2026-05-05 08:27 | 51.77061 | -0.45642 | 10140 ft | 253 kts | 347° |
| 2026-05-05 08:27 | 51.78649 | -0.46773 | 9976 ft | 251 kts | 322° |
| 2026-05-05 08:27 | 51.79811 | -0.48874 | 9794 ft | 252 kts | 299° |
| 2026-05-05 08:27 | 51.80592 | -0.51412 | 9611 ft | 252 kts | 296° |
| 2026-05-05 08:28 | 51.81360 | -0.53959 | 9423 ft | 253 kts | 296° |
| 2026-05-05 08:28 | 51.82133 | -0.56512 | 9242 ft | 253 kts | 296° |
| 2026-05-05 08:28 | 51.82913 | -0.59079 | 9052 ft | 254 kts | 296° |
| 2026-05-05 08:28 | 51.83536 | -0.61742 | 8863 ft | 255 kts | 279° |
| 2026-05-05 08:29 | 51.83451 | -0.64582 | 8679 ft | 255 kts | 255° |
| 2026-05-05 08:29 | 51.82623 | -0.67098 | 8493 ft | 257 kts | 229° |
| 2026-05-05 08:29 | 51.81199 | -0.68823 | 8313 ft | 257 kts | 203° |
| 2026-05-05 08:30 | 51.77736 | -0.68731 | 7950 ft | 256 kts | 152° |
| 2026-05-05 08:30 | 51.76365 | -0.66961 | 7774 ft | 253 kts | 127° |
| 2026-05-05 08:30 | 51.75462 | -0.64536 | 7603 ft | 251 kts | 116° |
| 2026-05-05 08:30 | 51.74678 | -0.62018 | 7420 ft | 251 kts | 115° |
| 2026-05-05 08:31 | 51.73920 | -0.59473 | 7253 ft | 251 kts | 114° |
| 2026-05-05 08:31 | 51.73176 | -0.56956 | 7110 ft | 251 kts | 114° |
| 2026-05-05 08:31 | 51.72441 | -0.54384 | 6993 ft | 248 kts | 108° |
| 2026-05-05 08:31 | 51.72265 | -0.51719 | 6997 ft | 243 kts | 81° |
| 2026-05-05 08:32 | 51.72851 | -0.49200 | 6997 ft | 241 kts | 54° |
| 2026-05-05 08:32 | 51.74069 | -0.47391 | 7000 ft | 241 kts | 27° |
| 2026-05-05 08:32 | 51.75667 | -0.46661 | 6998 ft | 240 kts | 1° |
| 2026-05-05 08:32 | 51.77293 | -0.47179 | 6999 ft | 241 kts | 334° |
| 2026-05-05 08:33 | 51.78235 | -0.48189 | 7004 ft | 242 kts | 317° |
| 2026-05-05 08:33 | 51.79406 | -0.51227 | 7000 ft | 245 kts | 294° |
| 2026-05-05 08:33 | 51.79889 | -0.52924 | 7002 ft | 245 kts | 296° |
| 2026-05-05 08:33 | 51.80634 | -0.55400 | 7001 ft | 245 kts | 297° |
| 2026-05-05 08:34 | 51.81387 | -0.57845 | 6995 ft | 246 kts | 298° |
| 2026-05-05 08:34 | 51.82139 | -0.60327 | 6999 ft | 247 kts | 294° |
| 2026-05-05 08:34 | 51.82415 | -0.63049 | 6999 ft | 247 kts | 266° |
| 2026-05-05 08:34 | 51.81928 | -0.65700 | 7000 ft | 248 kts | 240° |
| 2026-05-05 08:35 | 51.80775 | -0.67740 | 7000 ft | 248 kts | 213° |
| 2026-05-05 08:35 | 51.79182 | -0.68730 | 6998 ft | 248 kts | 186° |
| 2026-05-05 08:35 | 51.77485 | -0.68463 | 6999 ft | 246 kts | 159° |
| 2026-05-05 08:35 | 51.75996 | -0.67125 | 7000 ft | 246 kts | 144° |
| 2026-05-05 08:36 | 51.74583 | -0.65588 | 6997 ft | 246 kts | 144° |
| 2026-05-05 08:36 | 51.73164 | -0.64052 | 6999 ft | 247 kts | 144° |
| 2026-05-05 08:36 | 51.71752 | -0.62530 | 6997 ft | 239 kts | 144° |
| 2026-05-05 08:36 | 51.70381 | -0.61053 | 6997 ft | 236 kts | 145° |
| 2026-05-05 08:37 | 51.69018 | -0.59587 | 7002 ft | 235 kts | 145° |
| 2026-05-05 08:37 | 51.67677 | -0.58141 | 7000 ft | 227 kts | 145° |
| 2026-05-05 08:37 | 51.66397 | -0.56764 | 6989 ft | 216 kts | 144° |
| 2026-05-05 08:37 | 51.65160 | -0.55434 | 6804 ft | 211 kts | 144° |
| 2026-05-05 08:38 | 51.63949 | -0.54186 | 6636 ft | 205 kts | 152° |
| 2026-05-05 08:38 | 51.62563 | -0.53751 | 6465 ft | 205 kts | 184° |
| 2026-05-05 08:38 | 51.61226 | -0.54470 | 6275 ft | 205 kts | 214° |
| 2026-05-05 08:38 | 51.60297 | -0.56127 | 6163 ft | 197 kts | 243° |
| 2026-05-05 08:39 | 51.59981 | -0.58216 | 5969 ft | 191 kts | 270° |
| 2026-05-05 08:39 | 51.59996 | -0.60346 | 5772 ft | 192 kts | 273° |
| 2026-05-05 08:39 | 51.60002 | -0.62489 | 5575 ft | 191 kts | 272° |
| 2026-05-05 08:39 | 51.59996 | -0.64608 | 5410 ft | 189 kts | 269° |
| 2026-05-05 08:40 | 51.59894 | -0.66717 | 5231 ft | 189 kts | 266° |
| 2026-05-05 08:40 | 51.59759 | -0.68825 | 5049 ft | 190 kts | 266° |
| 2026-05-05 08:40 | 51.59620 | -0.70929 | 4877 ft | 194 kts | 265° |
| 2026-05-05 08:40 | 51.59474 | -0.73144 | 4694 ft | 200 kts | 266° |
| 2026-05-05 08:41 | 51.59329 | -0.75366 | 4491 ft | 200 kts | 265° |
| 2026-05-05 08:41 | 51.58872 | -0.77457 | 4321 ft | 203 kts | 238° |
| 2026-05-05 08:41 | 51.57852 | -0.78998 | 4144 ft | 202 kts | 208° |
| 2026-05-05 08:41 | 51.56521 | -0.79614 | 3957 ft | 199 kts | 180° |
| 2026-05-05 08:42 | 51.55138 | -0.79546 | 3788 ft | 199 kts | 175° |
| 2026-05-05 08:42 | 51.53756 | -0.79469 | 3609 ft | 199 kts | 176° |
| 2026-05-05 08:42 | 51.52368 | -0.79399 | 3427 ft | 199 kts | 176° |
| 2026-05-05 08:42 | 51.50982 | -0.79327 | 3249 ft | 199 kts | 175° |
| 2026-05-05 08:43 | 51.49597 | -0.79253 | 3092 ft | 198 kts | 176° |
| 2026-05-05 08:43 | 51.48299 | -0.78687 | 3008 ft | 193 kts | 139° |
| 2026-05-05 08:43 | 51.47635 | -0.76947 | 3007 ft | 183 kts | 95° |
| 2026-05-05 08:43 | 51.47706 | -0.74949 | 3009 ft | 179 kts | 80° |
| 2026-05-05 08:44 | 51.47680 | -0.72967 | 2999 ft | 180 kts | 88° |
| 2026-05-05 08:44 | 51.47653 | -0.70955 | 2855 ft | 180 kts | 86° |
| 2026-05-05 08:44 | 51.47653 | -0.68948 | 2645 ft | 179 kts | 85° |
| 2026-05-05 08:44 | 51.47660 | -0.66949 | 2409 ft | 179 kts | 85° |
| 2026-05-05 08:45 | 51.47670 | -0.64955 | 2170 ft | 179 kts | 85° |
| 2026-05-05 08:45 | 51.47680 | -0.62979 | 1937 ft | 171 kts | 85° |
| 2026-05-05 08:45 | 51.47687 | -0.61191 | 1706 ft | 151 kts | 85° |
| 2026-05-05 08:45 | 51.47694 | -0.59610 | 1502 ft | 135 kts | 85° |
| 2026-05-05 08:46 | 51.47702 | -0.58141 | 1321 ft | 128 kts | 85° |
| 2026-05-05 08:46 | 51.47710 | -0.56718 | 1149 ft | 126 kts | 85° |
| 2026-05-05 08:46 | 51.47700 | -0.55299 | 920 ft | 128 kts | 86° |
| 2026-05-05 08:46 | 51.47692 | -0.53866 | 610 ft | 129 kts | 79° |
| 2026-05-05 08:47 | 51.47720 | -0.52453 | 526 ft | 129 kts | 87° |
| 2026-05-05 08:47 | 51.47732 | -0.51020 | 418 ft | 129 kts | 85° |
| 2026-05-05 08:47 | 51.47751 | -0.49580 | 242 ft | 130 kts | 86° |
| 2026-05-05 08:47 | 51.47751 | -0.48146 | 92 ft | 120 kts | 86° |
| 2026-05-05 08:48 | 51.47760 | -0.47086 | 87 ft | 56 kts | 90° |
| 2026-05-05 08:48 | 51.47759 | -0.46682 | 89 ft | 38 kts | 90° |
| 2026-05-05 08:48 | 51.47753 | -0.46233 | 90 ft | 32 kts | 104° |
| 2026-05-05 08:48 | 51.47661 | -0.46096 | 88 ft | 13 kts | 142° |
| 2026-05-05 08:49 | 51.47606 | -0.46079 | 88 ft | 3 kts | 204° |
| 2026-05-05 08:49 | 51.47594 | -0.46124 | 87 ft | 9 kts | 264° |
| 2026-05-05 08:49 | 51.47592 | -0.46263 | 86 ft | 15 kts | 269° |
| 2026-05-05 08:49 | 51.47592 | -0.46484 | 86 ft | 25 kts | 271° |
| 2026-05-05 08:50 | 51.47592 | -0.46796 | 86 ft | 32 kts | 266° |
| 2026-05-05 08:50 | 51.47582 | -0.47114 | 86 ft | 20 kts | 269° |
| 2026-05-05 08:50 | 51.47581 | -0.47363 | 86 ft | 19 kts | 269° |
| 2026-05-05 08:50 | 51.47580 | -0.47611 | 88 ft | 26 kts | 270° |
| 2026-05-05 08:51 | 51.47579 | -0.47929 | 86 ft | 33 kts | 269° |
| 2026-05-05 08:51 | 51.47579 | -0.48212 | 88 ft | 23 kts | 270° |
| 2026-05-05 08:51 | 51.47578 | -0.48362 | 88 ft | 12 kts | 269° |
| 2026-05-05 08:51 | 51.47530 | -0.48479 | 88 ft | 17 kts | 182° |
| 2026-05-05 08:52 | 51.47487 | -0.48620 | 89 ft | 17 kts | 270° |
| 2026-05-05 08:52 | 51.47487 | -0.48637 | 86 ft | 0 kts | 271° |
| 2026-05-05 08:52 | 51.47487 | -0.48696 | 86 ft | 13 kts | 270° |
| 2026-05-05 08:53 | 51.47468 | -0.48757 | 86 ft | 6 kts | 186° |
| 2026-05-05 08:53 | 51.47417 | -0.48758 | 89 ft | 5 kts | 180° |
| 2026-05-05 08:53 | 51.47402 | -0.48757 | 86 ft | 1 kts | 179° |
| 2026-05-05 08:53 | 51.47398 | -0.48757 | 86 ft | 0 kts | 179° |